createdAt,value
2022-12-26T00:02:01.478Z,49.35
2022-12-26T00:04:51.124Z,48.63
2022-12-26T00:07:14.427Z,48.88
2022-12-26T00:09:40.897Z,47.35
2022-12-26T00:12:07.352Z,47.33
2022-12-26T00:14:33.904Z,47.03
2022-12-26T00:17:00.300Z,47.80
2022-12-26T00:19:26.727Z,45.13
2022-12-26T00:21:53.203Z,44.80
2022-12-26T00:24:19.656Z,43.15
2022-12-26T00:26:46.074Z,43.45
2022-12-26T00:29:12.495Z,47.97
2022-12-26T00:31:39.049Z,47.55
2022-12-26T00:34:05.583Z,44.75
2022-12-26T00:36:33.775Z,46.08
2022-12-26T00:39:02.417Z,43.88
2022-12-26T00:41:29.929Z,44.03
2022-12-26T00:43:56.799Z,42.22
2022-12-26T00:46:23.345Z,41.78
2022-12-26T00:48:49.944Z,41.60
2022-12-26T00:51:17.251Z,42.53
2022-12-26T00:53:43.741Z,40.17
2022-12-26T00:56:10.828Z,39.85
2022-12-26T00:58:37.379Z,39.67
2022-12-26T01:01:16.870Z,38.97
2022-12-26T01:03:45.387Z,39.20
2022-12-26T01:06:12.819Z,38.63
2022-12-26T01:08:39.883Z,38.05
2022-12-26T01:11:11.916Z,37.10
2022-12-26T01:13:38.694Z,37.55
2022-12-26T01:16:06.370Z,37.25
2022-12-26T01:18:34.246Z,36.20
2022-12-26T01:21:08.930Z,38.72
2022-12-26T01:23:35.622Z,37.45
2022-12-26T01:26:18.729Z,36.85
2022-12-26T01:28:51.410Z,37.45
2022-12-26T01:31:19.417Z,36.95
2022-12-26T01:33:46.636Z,37.85
2022-12-26T01:36:13.247Z,36.53
2022-12-26T01:38:39.747Z,36.63
2022-12-26T01:41:22.184Z,38.17
2022-12-26T01:43:48.577Z,37.25
2022-12-26T01:46:16.647Z,37.03
2022-12-26T01:48:43.151Z,38.90
2022-12-26T01:51:09.691Z,37.85
2022-12-26T01:53:45.287Z,38.03
2022-12-26T01:56:15.750Z,39.28
2022-12-26T01:58:55.487Z,38.05
2022-12-26T02:01:29.045Z,39.15
2022-12-26T02:04:14.474Z,38.58
2022-12-26T02:06:41.371Z,38.92
2022-12-26T02:09:09.080Z,38.33
2022-12-26T02:11:41.039Z,37.80
2022-12-26T02:14:08.922Z,38.10
2022-12-26T02:16:37.543Z,38.40
2022-12-26T02:19:09.029Z,39.25
2022-12-26T02:21:59.746Z,39.65
2022-12-26T02:24:56.039Z,40.03
2022-12-26T02:27:30.559Z,37.92
2022-12-26T02:30:09.364Z,40.25
2022-12-26T02:33:23.170Z,38.63
2022-12-26T02:36:22.330Z,38.45
2022-12-26T02:39:43.407Z,39.60
2022-12-26T02:42:29.085Z,38.15
2022-12-26T02:45:27.975Z,38.30
2022-12-26T02:48:03.403Z,38.78
2022-12-26T02:51:17.961Z,36.70
2022-12-26T02:54:21.298Z,38.00
2022-12-26T02:57:11.999Z,37.67
2022-12-26T03:00:19.011Z,38.10
2022-12-26T03:03:29.131Z,38.10
2022-12-26T03:06:31.541Z,39.33
2022-12-26T03:09:21.784Z,38.75
2022-12-26T03:14:45.070Z,37.95
2022-12-26T03:17:27.327Z,39.25
2022-12-26T03:19:59.661Z,38.88
2022-12-26T03:22:37.264Z,39.58
2022-12-26T03:25:27.960Z,39.78
2022-12-26T03:27:54.783Z,39.13
2022-12-26T03:30:40.410Z,39.70
2022-12-26T03:33:27.548Z,40.72
2022-12-26T03:35:54.374Z,41.30
2022-12-26T03:38:29.063Z,41.85
2022-12-26T03:41:24.619Z,42.35
2022-12-26T03:44:42.086Z,41.13
2022-12-26T03:47:44.192Z,41.63
2022-12-26T03:50:59.914Z,43.28
2022-12-26T03:53:58.663Z,42.42
2022-12-26T03:57:01.422Z,42.58
2022-12-26T03:59:57.411Z,43.05
2022-12-26T04:02:46.076Z,42.95
2022-12-26T04:05:35.581Z,42.15
2022-12-26T04:08:26.257Z,42.67
2022-12-26T04:11:15.113Z,45.97
2022-12-26T04:14:12.937Z,44.30
2022-12-26T04:17:04.402Z,44.78
2022-12-26T04:19:47.945Z,45.75
2022-12-26T04:22:41.643Z,44.33
2022-12-26T04:25:49.377Z,43.95
2022-12-26T04:28:36.148Z,45.70
2022-12-26T04:31:27.977Z,44.38
2022-12-26T04:34:20.376Z,45.22
2022-12-26T04:37:17.360Z,45.35
2022-12-26T04:40:06.708Z,45.72
2022-12-26T04:42:53.697Z,44.70
2022-12-26T04:45:22.200Z,45.47
2022-12-26T04:48:09.830Z,47.22
2022-12-26T04:50:36.408Z,48.35
2022-12-26T04:53:02.846Z,45.75
2022-12-26T04:55:32.779Z,46.13
2022-12-26T04:57:59.983Z,45.60
2022-12-26T05:00:28.666Z,44.95
2022-12-26T05:03:19.033Z,43.45
2022-12-26T05:06:08.966Z,44.22
2022-12-26T05:09:02.548Z,44.30
2022-12-26T05:11:31.695Z,43.75
2022-12-26T05:13:59.103Z,43.95
2022-12-26T05:16:45.687Z,45.47
2022-12-26T05:19:32.776Z,44.40
2022-12-26T05:22:19.257Z,45.10
2022-12-26T05:25:05.017Z,45.92
2022-12-26T05:27:59.063Z,45.25
2022-12-26T05:30:25.996Z,45.10
2022-12-26T05:33:11.233Z,48.17
2022-12-26T05:35:38.384Z,44.97
2022-12-26T05:38:05.340Z,45.33
2022-12-26T05:40:32.041Z,47.42
2022-12-26T05:42:58.468Z,47.78
2022-12-26T05:45:24.963Z,46.65
2022-12-26T05:47:57.908Z,47.70
2022-12-26T05:50:24.347Z,47.95
2022-12-26T05:52:50.989Z,47.75
2022-12-26T05:55:17.472Z,47.05
2022-12-26T05:57:43.895Z,48.17
2022-12-26T06:00:11.076Z,49.63
2022-12-26T06:02:37.590Z,46.88
2022-12-26T06:05:04.282Z,48.10
2022-12-26T06:07:30.832Z,49.80
2022-12-26T06:09:57.358Z,49.70
2022-12-26T06:12:23.781Z,51.65
2022-12-26T06:14:50.235Z,52.85
2022-12-26T06:17:16.700Z,51.17
2022-12-26T06:19:46.733Z,50.42
2022-12-26T06:22:13.686Z,51.65
2022-12-26T06:24:40.271Z,51.92
2022-12-26T06:27:06.811Z,48.58
2022-12-26T06:29:33.329Z,54.30
2022-12-26T06:31:59.835Z,54.17
2022-12-26T06:34:27.632Z,52.55
2022-12-26T06:36:55.482Z,52.60
2022-12-26T06:39:23.117Z,54.10
2022-12-26T06:41:49.532Z,54.55
2022-12-26T06:44:18.487Z,53.97
2022-12-26T06:46:45.668Z,53.00
2022-12-26T06:49:12.113Z,57.03
2022-12-26T06:51:38.643Z,50.58
2022-12-26T06:54:05.216Z,50.72
2022-12-26T06:56:32.694Z,52.78
2022-12-26T06:59:02.198Z,49.50
2022-12-26T07:01:31.124Z,52.03
2022-12-26T07:03:57.722Z,51.03
2022-12-26T07:06:27.178Z,52.33
2022-12-26T07:08:57.641Z,54.35
2022-12-26T07:11:27.444Z,50.35
2022-12-26T07:13:54.582Z,50.08
2022-12-26T07:16:22.153Z,49.35
2022-12-26T07:18:48.659Z,51.00
2022-12-26T07:21:15.948Z,50.13
2022-12-26T07:23:42.972Z,51.38
2022-12-26T07:26:09.877Z,53.00
2022-12-26T07:28:36.814Z,54.15
2022-12-26T07:31:04.025Z,51.67
2022-12-26T07:33:30.636Z,48.88
2022-12-26T07:36:05.447Z,53.88
2022-12-26T07:38:35.276Z,54.20
2022-12-26T07:41:24.492Z,53.42
2022-12-26T07:43:51.674Z,52.28
2022-12-26T07:46:18.899Z,55.47
2022-12-26T07:48:45.619Z,55.05
2022-12-26T07:51:12.168Z,54.47
2022-12-26T07:53:38.582Z,53.78
2022-12-26T07:56:05.446Z,54.45
2022-12-26T07:58:31.860Z,57.05
2022-12-26T08:01:03.271Z,54.42
2022-12-26T08:03:29.787Z,55.75
2022-12-26T08:05:56.708Z,56.67
2022-12-26T08:08:23.499Z,63.60
2022-12-26T08:10:58.048Z,65.32
2022-12-26T08:13:24.434Z,67.72
2022-12-26T08:15:51.107Z,69.88
2022-12-26T08:18:17.468Z,59.63
2022-12-26T08:20:43.880Z,53.88
2022-12-26T08:23:10.352Z,65.85
2022-12-26T08:25:37.900Z,60.63
2022-12-26T08:28:04.622Z,56.65
2022-12-26T08:30:31.010Z,52.40
2022-12-26T08:32:57.425Z,57.28
2022-12-26T08:35:23.938Z,55.53
2022-12-26T08:37:51.449Z,59.13
2022-12-26T08:40:26.816Z,56.92
2022-12-26T08:43:21.621Z,56.42
2022-12-26T08:45:45.746Z,55.33
2022-12-26T08:48:12.155Z,58.08
2022-12-26T08:50:41.377Z,54.33
2022-12-26T08:53:08.100Z,58.10
2022-12-26T08:55:34.540Z,56.85
2022-12-26T08:58:01.009Z,56.08
2022-12-26T09:00:27.468Z,59.75
2022-12-26T09:02:54.031Z,55.75
2022-12-26T09:05:20.634Z,59.20
2022-12-26T09:07:47.963Z,57.28
2022-12-26T09:10:14.491Z,62.70
2022-12-26T09:12:40.920Z,54.95
2022-12-26T09:15:08.035Z,60.83
2022-12-26T09:17:34.508Z,58.80
2022-12-26T09:20:01.031Z,60.97
2022-12-26T09:22:45.883Z,57.33
2022-12-26T09:25:12.296Z,58.13
2022-12-26T09:27:38.826Z,56.83
2022-12-26T09:30:06.140Z,56.08
2022-12-26T09:32:34.624Z,53.30
2022-12-26T09:35:01.489Z,59.53
2022-12-26T09:37:28.295Z,54.40
2022-12-26T09:39:54.697Z,55.38
2022-12-26T09:42:44.331Z,54.63
2022-12-26T09:45:15.798Z,53.92
2022-12-26T09:47:53.406Z,52.10
2022-12-26T09:50:35.203Z,49.75
2022-12-26T09:53:14.521Z,50.88
2022-12-26T09:55:59.041Z,52.03
2022-12-26T09:58:35.111Z,49.10
2022-12-26T10:01:13.718Z,50.45
2022-12-26T10:03:43.728Z,48.63
2022-12-26T10:06:25.053Z,47.70
2022-12-26T10:09:19.570Z,47.83
2022-12-26T10:11:58.243Z,43.03
2022-12-26T10:14:33.503Z,43.85
2022-12-26T10:17:29.572Z,42.78
2022-12-26T10:20:33.165Z,40.72
2022-12-26T10:23:30.368Z,42.15
2022-12-26T10:26:03.977Z,43.88
2022-12-26T10:28:46.752Z,46.83
2022-12-26T10:31:24.151Z,41.63
2022-12-26T10:34:15.691Z,42.92
2022-12-26T10:36:58.781Z,40.90
2022-12-26T10:39:33.468Z,40.72
2022-12-26T10:42:09.216Z,39.50
2022-12-26T10:44:35.676Z,39.03
2022-12-26T10:47:27.880Z,36.30
2022-12-26T10:49:54.807Z,40.03
2022-12-26T10:52:26.649Z,40.25
2022-12-26T10:55:28.599Z,45.42
2022-12-26T10:57:48.857Z,38.55
2022-12-26T11:02:45.218Z,36.80
2022-12-26T11:05:27.257Z,33.30
2022-12-26T11:08:21.663Z,33.95
2022-12-26T11:11:06.821Z,34.13
2022-12-26T11:13:39.056Z,34.35
2022-12-26T11:16:07.129Z,31.92
2022-12-26T11:18:51.194Z,32.47
2022-12-26T11:21:17.558Z,31.75
2022-12-26T11:23:49.632Z,32.33
2022-12-26T11:26:25.037Z,31.92
2022-12-26T11:29:14.446Z,30.45
2022-12-26T11:31:44.157Z,29.93
2022-12-26T11:34:17.550Z,28.13
2022-12-26T11:36:49.721Z,29.02
2022-12-26T11:39:32.848Z,29.23
2022-12-26T11:41:59.679Z,28.45
2022-12-26T11:44:35.461Z,27.27
2022-12-26T11:47:10.576Z,28.05
2022-12-26T11:49:47.222Z,26.33
2022-12-26T11:52:58.831Z,27.40
2022-12-26T11:55:33.529Z,26.95
2022-12-26T11:58:20.182Z,27.75
2022-12-26T12:00:49.345Z,25.88
2022-12-26T12:03:22.747Z,27.05
2022-12-26T12:06:16.626Z,26.27
2022-12-26T12:08:52.241Z,28.80
2022-12-26T12:12:09.128Z,27.92
2022-12-26T12:14:52.506Z,25.80
2022-12-26T12:17:30.329Z,26.83
2022-12-26T12:20:30.256Z,28.58
2022-12-26T12:23:38.127Z,34.03
2022-12-26T12:26:29.379Z,31.88
2022-12-26T12:29:16.119Z,32.20
2022-12-26T12:31:51.775Z,32.88
2022-12-26T12:34:36.969Z,33.28
2022-12-26T12:37:22.081Z,32.92
2022-12-26T12:40:26.269Z,31.98
2022-12-26T12:43:14.758Z,31.08
2022-12-26T12:46:05.868Z,29.48
2022-12-26T12:48:51.203Z,27.98
2022-12-26T12:51:27.102Z,27.25
2022-12-26T12:54:21.269Z,26.02
2022-12-26T12:57:08.970Z,22.58
2022-12-26T12:59:59.012Z,22.25
2022-12-26T13:02:36.079Z,20.88
2022-12-26T13:05:15.168Z,20.25
2022-12-26T13:07:48.204Z,18.58
2022-12-26T13:10:33.118Z,18.48
2022-12-26T13:13:09.556Z,16.38
2022-12-26T13:15:42.823Z,14.30
2022-12-26T13:18:26.807Z,14.43
2022-12-26T13:21:00.900Z,12.85
2022-12-26T13:24:00.181Z,12.70
2022-12-26T13:26:34.495Z,11.00
2022-12-26T13:29:27.744Z,10.75
2022-12-26T13:31:54.339Z,11.25
2022-12-26T13:34:21.666Z,10.48
2022-12-26T13:36:54.645Z,10.73
2022-12-26T13:39:23.798Z,10.57
2022-12-26T13:42:14.842Z,10.98
2022-12-26T13:44:41.594Z,10.00
2022-12-26T13:47:31.745Z,9.88
2022-12-26T13:49:58.259Z,9.45
2022-12-26T13:52:34.062Z,10.73
2022-12-26T13:55:06.737Z,10.77
2022-12-26T13:57:44.876Z,11.20
2022-12-26T14:00:14.300Z,11.23
2022-12-26T14:03:19.607Z,11.73
2022-12-26T14:06:08.537Z,13.20
2022-12-26T14:08:40.814Z,13.20
2022-12-26T14:11:13.207Z,12.82
2022-12-26T14:13:39.519Z,12.10
2022-12-26T14:16:14.338Z,11.77
2022-12-26T14:18:53.386Z,11.75
2022-12-26T14:21:34.439Z,10.43
2022-12-26T14:24:12.995Z,11.15
2022-12-26T14:26:42.275Z,10.70
2022-12-26T14:29:24.484Z,11.03
2022-12-26T14:32:19.794Z,10.95
2022-12-26T14:35:04.894Z,10.80
2022-12-26T14:37:31.279Z,10.20
2022-12-26T14:40:35.317Z,10.52
2022-12-26T14:43:30.271Z,11.15
2022-12-26T14:45:58.172Z,13.32
2022-12-26T14:48:27.475Z,24.40
2022-12-26T14:51:02.995Z,27.25
2022-12-26T14:53:33.287Z,27.95
2022-12-26T14:58:46.317Z,27.52
2022-12-26T15:01:12.883Z,28.40
2022-12-26T15:03:44.527Z,27.77
2022-12-26T15:06:14.363Z,27.60
2022-12-26T15:09:17.931Z,26.60
2022-12-26T15:12:16.801Z,25.90
2022-12-26T15:15:05.455Z,26.45
2022-12-26T15:17:41.067Z,26.25
2022-12-26T15:20:27.684Z,25.90
2022-12-26T15:23:12.030Z,26.45
2022-12-26T15:25:56.753Z,26.88
2022-12-26T15:28:56.360Z,27.17
2022-12-26T15:31:49.367Z,28.10
2022-12-26T15:34:15.822Z,27.45
2022-12-26T15:37:18.246Z,26.95
2022-12-26T15:40:14.764Z,27.60
2022-12-26T15:43:18.437Z,27.88
2022-12-26T15:46:00.424Z,27.92
2022-12-26T15:48:36.656Z,28.13
2022-12-26T15:51:31.114Z,27.75
2022-12-26T15:54:34.953Z,27.65
2022-12-26T15:57:21.175Z,27.08
2022-12-26T16:00:24.692Z,26.20
2022-12-26T16:03:24.643Z,25.55
2022-12-26T16:06:01.129Z,26.23
2022-12-26T16:08:56.188Z,25.00
2022-12-26T16:11:26.205Z,23.38
2022-12-26T16:13:55.970Z,23.05
2022-12-26T16:16:34.481Z,22.17
2022-12-26T16:19:21.988Z,19.33
2022-12-26T16:22:23.074Z,19.20
2022-12-26T16:24:51.459Z,19.25
2022-12-26T16:27:21.230Z,19.25
2022-12-26T16:30:00.902Z,23.20
2022-12-26T16:32:37.489Z,20.75
2022-12-26T16:35:05.402Z,20.35
2022-12-26T16:37:32.860Z,19.30
2022-12-26T16:40:30.312Z,19.13
2022-12-26T16:42:56.766Z,17.80
2022-12-26T16:45:24.140Z,17.75
2022-12-26T16:47:51.708Z,18.15
2022-12-26T16:50:21.879Z,19.33
2022-12-26T16:55:42.877Z,22.83
2022-12-26T16:58:15.126Z,21.27
2022-12-26T17:00:48.797Z,18.35
2022-12-26T17:03:26.508Z,17.27
2022-12-26T17:05:53.120Z,23.02
2022-12-26T17:08:21.397Z,20.77
2022-12-26T17:10:50.458Z,25.67
2022-12-26T17:13:24.630Z,18.08
2022-12-26T17:15:55.537Z,15.30
2022-12-26T17:19:09.464Z,15.27
2022-12-26T17:21:36.182Z,49.45
2022-12-26T17:24:08.493Z,38.00
2022-12-26T17:26:38.015Z,17.67
2022-12-26T17:29:05.394Z,17.13
2022-12-26T17:31:31.798Z,15.20
2022-12-26T17:33:59.553Z,14.77
2022-12-26T17:37:17.728Z,13.35
2022-12-26T17:39:24.096Z,14.95
2022-12-26T17:41:59.167Z,12.63
2022-12-26T17:44:44.860Z,12.95
2022-12-26T17:47:19.212Z,12.98
2022-12-26T17:49:46.900Z,14.10
2022-12-26T17:52:15.330Z,13.50
2022-12-26T17:54:41.913Z,14.38
2022-12-26T17:57:17.033Z,13.82
2022-12-26T17:59:43.506Z,12.18
2022-12-26T18:02:10.892Z,17.75
2022-12-26T18:04:37.597Z,15.48
2022-12-26T18:07:05.421Z,12.55
2022-12-26T18:09:32.233Z,12.52
2022-12-26T18:11:58.642Z,12.65
2022-12-26T18:14:25.130Z,12.48
2022-12-26T18:16:52.063Z,12.52
2022-12-26T18:19:19.617Z,12.30
2022-12-26T18:21:46.231Z,14.48
2022-12-26T18:24:13.313Z,15.23
2022-12-26T18:26:40.422Z,12.93
2022-12-26T18:29:07.173Z,15.80
2022-12-26T18:31:33.731Z,13.80
2022-12-26T18:34:00.211Z,13.63
2022-12-26T18:36:32.243Z,14.80
2022-12-26T18:38:59.084Z,14.52
2022-12-26T18:41:25.796Z,13.85
2022-12-26T18:43:52.289Z,14.68
2022-12-26T18:46:20.108Z,18.17
2022-12-26T18:48:46.794Z,14.70
2022-12-26T18:51:13.350Z,13.20
2022-12-26T18:53:39.828Z,15.43
2022-12-26T18:56:07.166Z,15.20
2022-12-26T18:58:34.377Z,17.83
2022-12-26T19:01:03.014Z,16.02
2022-12-26T19:03:29.730Z,14.65
2022-12-26T19:05:56.249Z,14.63
2022-12-26T19:08:22.757Z,13.63
2022-12-26T19:10:49.158Z,13.05
2022-12-26T19:13:15.682Z,12.88
2022-12-26T19:15:45.730Z,14.32
2022-12-26T19:18:12.911Z,14.13
2022-12-26T19:20:44.148Z,14.82
2022-12-26T19:23:11.067Z,13.95
2022-12-26T19:25:37.521Z,13.32
2022-12-26T19:28:04.021Z,13.82
2022-12-26T19:30:35.255Z,13.52
2022-12-26T19:33:05.197Z,13.73
2022-12-26T19:35:31.941Z,17.42
2022-12-26T19:37:58.483Z,13.25
2022-12-26T19:40:25.571Z,12.75
2022-12-26T19:42:52.410Z,13.13
2022-12-26T19:45:18.962Z,13.15
2022-12-26T19:47:45.388Z,11.60
2022-12-26T19:50:12.345Z,13.10
2022-12-26T19:52:39.494Z,13.10
2022-12-26T19:55:07.224Z,13.00
2022-12-26T19:57:34.261Z,12.85
2022-12-26T20:00:00.743Z,12.27
2022-12-26T20:02:27.423Z,12.57
2022-12-26T20:04:53.907Z,12.25
2022-12-26T20:07:20.442Z,14.27
2022-12-26T20:09:46.841Z,13.70
2022-12-26T20:12:13.244Z,16.83
2022-12-26T20:14:39.638Z,12.95
2022-12-26T20:17:09.415Z,12.80
2022-12-26T20:19:36.994Z,13.77
2022-12-26T20:22:04.595Z,12.95
2022-12-26T20:24:31.131Z,12.30
2022-12-26T20:26:57.812Z,12.95
2022-12-26T20:29:24.379Z,11.60
2022-12-26T20:31:50.787Z,12.15
2022-12-26T20:34:17.464Z,12.02
2022-12-26T20:36:43.911Z,11.55
2022-12-26T20:39:14.297Z,12.10
2022-12-26T20:41:41.080Z,11.18
2022-12-26T20:44:07.580Z,11.95
2022-12-26T20:46:35.402Z,12.43
2022-12-26T20:49:05.187Z,12.40
2022-12-26T20:51:37.498Z,11.73
2022-12-26T20:54:06.852Z,13.07
2022-12-26T20:56:33.884Z,11.25
2022-12-26T20:59:00.495Z,12.93
2022-12-26T21:01:28.101Z,12.95
2022-12-26T21:03:56.349Z,12.13
2022-12-26T21:06:27.313Z,11.88
2022-12-26T21:08:54.234Z,12.68
2022-12-26T21:11:29.134Z,12.38
2022-12-26T21:14:04.238Z,13.05
2022-12-26T21:16:39.676Z,12.93
2022-12-26T21:19:12.562Z,11.50
2022-12-26T21:21:43.947Z,10.63
2022-12-26T21:24:13.776Z,11.63
2022-12-26T21:26:42.598Z,10.95
2022-12-26T21:29:12.675Z,12.05
2022-12-26T21:31:39.548Z,13.15
2022-12-26T21:34:06.486Z,12.93
2022-12-26T21:36:35.459Z,12.32
2022-12-26T21:39:10.137Z,12.60
2022-12-26T21:41:37.524Z,13.20
2022-12-26T21:44:04.192Z,12.50
2022-12-26T21:46:30.659Z,12.32
2022-12-26T21:48:57.091Z,12.23
2022-12-26T21:51:28.744Z,12.38
2022-12-26T21:54:15.283Z,11.80
2022-12-26T21:56:41.780Z,12.40
2022-12-26T21:59:27.788Z,12.05
2022-12-26T22:01:54.309Z,11.90
2022-12-26T22:04:20.742Z,11.93
2022-12-26T22:06:49.892Z,11.73
2022-12-26T22:09:17.181Z,12.07
2022-12-26T22:12:03.272Z,11.82
2022-12-26T22:14:29.939Z,11.25
2022-12-26T22:16:57.408Z,11.73
2022-12-26T22:19:25.195Z,11.18
2022-12-26T22:21:53.119Z,11.60
2022-12-26T22:24:21.690Z,11.02
2022-12-26T22:26:48.197Z,11.30
2022-12-26T22:29:14.604Z,10.73
2022-12-26T22:31:41.117Z,10.98
2022-12-26T22:34:12.871Z,10.68
2022-12-26T22:36:40.520Z,11.18
2022-12-26T22:39:07.503Z,10.68
2022-12-26T22:41:34.294Z,11.35
2022-12-26T22:44:01.069Z,11.15
2022-12-26T22:46:27.641Z,11.05
2022-12-26T22:48:54.158Z,11.38
2022-12-26T22:51:23.266Z,10.98
2022-12-26T22:53:53.624Z,11.68
2022-12-26T22:56:19.998Z,11.02
2022-12-26T22:58:46.477Z,12.75
2022-12-26T23:01:15.180Z,11.18
2022-12-26T23:03:42.010Z,11.43
2022-12-26T23:06:20.629Z,11.43
2022-12-26T23:08:48.775Z,11.65
2022-12-26T23:11:15.679Z,11.13
2022-12-26T23:13:42.571Z,12.35
2022-12-26T23:16:28.519Z,11.75
2022-12-26T23:19:18.599Z,11.68
2022-12-26T23:21:49.305Z,11.63
2022-12-26T23:24:20.330Z,11.73
2022-12-26T23:26:50.001Z,11.57
2022-12-26T23:29:37.963Z,11.75
2022-12-26T23:32:05.328Z,11.43
2022-12-26T23:34:31.761Z,11.85
2022-12-26T23:36:58.623Z,10.93
2022-12-26T23:39:25.287Z,11.65
2022-12-26T23:41:52.088Z,11.02
2022-12-26T23:44:18.817Z,11.52
2022-12-26T23:46:45.306Z,12.43
2022-12-26T23:49:13.383Z,11.77
2022-12-26T23:51:40.408Z,11.68
2022-12-26T23:54:07.052Z,11.88
2022-12-26T23:56:33.521Z,10.60
2022-12-26T23:58:59.948Z,10.98
